Redding Ridge, Connecticut
Current Conditions -  °F | °C
As of 7:53 AM on Sunday 23 Nov 2014 (Local Time) from KDXR Reporting Station
Light Rain Light Rain  
Wind Chill: 40°   Ceiling: 7000
Heat Index: 40°   Visibility: 9mi
Dew Point: 22°   Wind: 3mph
Humidity: 49%   Direction: 240°WSW
Pressure: 30.19"   Gusts: NA
Location:  41.31°N, 73.35°W
Report Text: KDXR 231253Z 24003KT 9SM -RA OVC070 04/M06 A3019 RMK AO2 RAB44 SLP224 P0000 T00441056
Loading
Personal Weather Stations






























Interactive Weather Map New forecast layout! Learn more

10-Day Weather Forecast

Advertisements
Track Severe Weather on mobile